Pagrindinis puslapis
METAR-TAF:

METAR-TAF

Oro uostai :

Damaskas, Sirija

platuma: 33-25N, ilguma: 036-31E, Aukštis: 608 m

Dabartinis oras

Ataskaita buvo paskelbta 15 minutes, ne 16:00 UTC
Vėjas 5 kt iš Šiaurės/Šiaurės Rytų
Temperatūra 23°C
Drėgmė 25%
Slėgis 1017 hPa
Matomumas 10 km arba daugiau
nėra debesų žemiau 1500 m ir nėra kamuolinių lietaus debesų

METAR: OSDI 251600Z 02005KT CAVOK 23/02 Q1017

Laikas: 19:15 (16:15 UTC)

Prognozė

Prognozė galioja nuo 25 metu 12 UTC su 26 metu 18 UTC
Vėjas 10 kt iš Vakarų/Pietvakarių su gūsio iki 20 kt
Matomumas: 8000 m
Mažai debesys ne aukštis 3000 ft
Laikinai
nuo 25 metu 20 UTC su 26 metu 06 UTC
Vėjas 10 kt iš Pietų/Pietvakarių
Matomumas 10 km arba daugiau
nėra debesų žemiau 1500 m ir nėra kamuolinių lietaus debesų

TAF: OSDI 2512/2618 25010G20KT 8000 FEW030 TEMPO 2520/2606 21010KT CAVOK

Orai ataskaitas ir orų prognozės (METAR, TAF).

turimą stotys yra geltonos ir raudonos taškus žemėlapyje.

Perkelti pele per norėdami pamatyti stoties vardą.

Tada spustelėkite, norėdami matyti oro stebėjimo ir prognozės.

Norėdami pakeisti žemėlapį: spustelėkite ant žalios mygtukų su juodo kryžiaus žemyn,; žalią mygtuką su brūkšneliu, jei norite nutolinti; arba žalių rodyklių gretimoms žemėlapius.


METAR-TAF: